sensor_id;sensor_type;location;lat;lon;timestamp;temperature;humidity
52016;DHT22;38032;53.326;6.472;2023-04-16T00:01:06;10.30;99.90
52016;DHT22;38032;53.326;6.472;2023-04-16T00:03:32;10.30;99.90
52016;DHT22;38032;53.326;6.472;2023-04-16T00:05:58;10.30;99.90
52016;DHT22;38032;53.326;6.472;2023-04-16T00:08:24;10.20;99.90
52016;DHT22;38032;53.326;6.472;2023-04-16T00:10:51;10.20;99.90
52016;DHT22;38032;53.326;6.472;2023-04-16T00:13:17;10.20;99.90
52016;DHT22;38032;53.326;6.472;2023-04-16T00:15:43;10.20;99.90
52016;DHT22;38032;53.326;6.472;2023-04-16T00:18:09;10.10;99.90
52016;DHT22;38032;53.326;6.472;2023-04-16T00:20:35;10.10;99.90
52016;DHT22;38032;53.326;6.472;2023-04-16T00:23:01;10.10;99.90
52016;DHT22;38032;53.326;6.472;2023-04-16T00:25:27;10.10;99.90
52016;DHT22;38032;53.326;6.472;2023-04-16T00:27:53;10.10;99.90
52016;DHT22;38032;53.326;6.472;2023-04-16T00:30:18;10.20;99.90
52016;DHT22;38032;53.326;6.472;2023-04-16T00:32:44;10.20;99.90
52016;DHT22;38032;53.326;6.472;2023-04-16T00:35:10;10.10;99.90
52016;DHT22;38032;53.326;6.472;2023-04-16T00:37:36;10.20;99.90
52016;DHT22;38032;53.326;6.472;2023-04-16T00:40:02;10.20;99.90
52016;DHT22;38032;53.326;6.472;2023-04-16T00:42:28;10.20;99.90
52016;DHT22;38032;53.326;6.472;2023-04-16T00:44:54;10.20;99.90
52016;DHT22;38032;53.326;6.472;2023-04-16T00:47:20;10.20;99.90
52016;DHT22;38032;53.326;6.472;2023-04-16T00:49:46;10.20;99.90
52016;DHT22;38032;53.326;6.472;2023-04-16T00:52:12;10.20;99.90
52016;DHT22;38032;53.326;6.472;2023-04-16T00:54:38;10.20;99.90
52016;DHT22;38032;53.326;6.472;2023-04-16T00:57:05;10.30;99.90
52016;DHT22;38032;53.326;6.472;2023-04-16T00:59:31;10.30;99.90
52016;DHT22;38032;53.326;6.472;2023-04-16T01:01:57;10.20;99.90
52016;DHT22;38032;53.326;6.472;2023-04-16T01:04:23;10.20;99.90
52016;DHT22;38032;53.326;6.472;2023-04-16T01:06:49;10.20;99.90
52016;DHT22;38032;53.326;6.472;2023-04-16T01:09:15;10.20;99.90
52016;DHT22;38032;53.326;6.472;2023-04-16T01:11:41;10.20;99.90
52016;DHT22;38032;53.326;6.472;2023-04-16T01:14:07;10.20;99.90
52016;DHT22;38032;53.326;6.472;2023-04-16T01:16:33;10.30;99.90
52016;DHT22;38032;53.326;6.472;2023-04-16T01:18:59;10.20;99.90
52016;DHT22;38032;53.326;6.472;2023-04-16T01:21:25;10.20;99.90
52016;DHT22;38032;53.326;6.472;2023-04-16T01:23:51;10.20;99.90
52016;DHT22;38032;53.326;6.472;2023-04-16T01:26:16;10.20;99.90
52016;DHT22;38032;53.326;6.472;2023-04-16T01:28:42;10.20;99.90
52016;DHT22;38032;53.326;6.472;2023-04-16T01:31:08;10.20;99.90
52016;DHT22;38032;53.326;6.472;2023-04-16T01:33:34;10.20;99.90
52016;DHT22;38032;53.326;6.472;2023-04-16T01:36:00;10.20;99.90
52016;DHT22;38032;53.326;6.472;2023-04-16T01:38:26;10.20;99.90
52016;DHT22;38032;53.326;6.472;2023-04-16T01:40:55;10.20;99.90
52016;DHT22;38032;53.326;6.472;2023-04-16T01:43:22;10.20;99.90
52016;DHT22;38032;53.326;6.472;2023-04-16T01:45:48;10.20;99.90
52016;DHT22;38032;53.326;6.472;2023-04-16T01:48:14;10.20;99.90
52016;DHT22;38032;53.326;6.472;2023-04-16T01:50:40;10.20;99.90
52016;DHT22;38032;53.326;6.472;2023-04-16T01:53:06;10.20;99.90
52016;DHT22;38032;53.326;6.472;2023-04-16T01:55:32;10.20;99.90
52016;DHT22;38032;53.326;6.472;2023-04-16T01:57:58;10.20;99.90
52016;DHT22;38032;53.326;6.472;2023-04-16T02:00:24;10.20;99.90
52016;DHT22;38032;53.326;6.472;2023-04-16T02:02:50;10.20;99.90
52016;DHT22;38032;53.326;6.472;2023-04-16T02:05:16;10.20;99.90
52016;DHT22;38032;53.326;6.472;2023-04-16T02:07:42;10.20;99.90
52016;DHT22;38032;53.326;6.472;2023-04-16T02:10:08;10.20;99.90
52016;DHT22;38032;53.326;6.472;2023-04-16T02:12:34;10.20;99.90
52016;DHT22;38032;53.326;6.472;2023-04-16T02:15:01;10.20;99.90
52016;DHT22;38032;53.326;6.472;2023-04-16T02:17:26;10.20;99.90
52016;DHT22;38032;53.326;6.472;2023-04-16T02:19:52;10.20;99.90
52016;DHT22;38032;53.326;6.472;2023-04-16T02:22:18;10.20;99.90
52016;DHT22;38032;53.326;6.472;2023-04-16T02:24:44;10.20;99.90
52016;DHT22;38032;53.326;6.472;2023-04-16T02:27:10;10.10;99.90
52016;DHT22;38032;53.326;6.472;2023-04-16T02:29:36;10.10;99.90
52016;DHT22;38032;53.326;6.472;2023-04-16T02:32:02;10.10;99.90
52016;DHT22;38032;53.326;6.472;2023-04-16T02:34:28;10.10;99.90
52016;DHT22;38032;53.326;6.472;2023-04-16T02:36:53;10.10;99.90
52016;DHT22;38032;53.326;6.472;2023-04-16T02:39:19;10.10;99.90
52016;DHT22;38032;53.326;6.472;2023-04-16T02:41:45;10.10;99.90
52016;DHT22;38032;53.326;6.472;2023-04-16T02:44:11;10.10;99.90
52016;DHT22;38032;53.326;6.472;2023-04-16T02:46:37;10.10;99.90
52016;DHT22;38032;53.326;6.472;2023-04-16T02:49:03;10.10;99.90
52016;DHT22;38032;53.326;6.472;2023-04-16T02:51:29;10.10;99.90
52016;DHT22;38032;53.326;6.472;2023-04-16T02:53:55;10.10;99.90
52016;DHT22;38032;53.326;6.472;2023-04-16T02:56:21;10.10;99.90
52016;DHT22;38032;53.326;6.472;2023-04-16T02:58:47;10.10;99.90
52016;DHT22;38032;53.326;6.472;2023-04-16T03:01:13;10.00;99.90
52016;DHT22;38032;53.326;6.472;2023-04-16T03:03:38;10.00;99.90
52016;DHT22;38032;53.326;6.472;2023-04-16T03:06:04;10.00;99.90
52016;DHT22;38032;53.326;6.472;2023-04-16T03:08:30;10.00;99.90
52016;DHT22;38032;53.326;6.472;2023-04-16T03:10:56;10.00;99.90
52016;DHT22;38032;53.326;6.472;2023-04-16T03:13:22;9.90;99.90
52016;DHT22;38032;53.326;6.472;2023-04-16T03:15:48;9.90;99.90
52016;DHT22;38032;53.326;6.472;2023-04-16T03:18:14;9.90;99.90
52016;DHT22;38032;53.326;6.472;2023-04-16T03:20:41;9.90;99.90
52016;DHT22;38032;53.326;6.472;2023-04-16T03:23:06;9.90;99.90
52016;DHT22;38032;53.326;6.472;2023-04-16T03:25:32;9.90;99.90
52016;DHT22;38032;53.326;6.472;2023-04-16T03:27:58;9.90;99.90
52016;DHT22;38032;53.326;6.472;2023-04-16T03:30:24;9.90;99.90
52016;DHT22;38032;53.326;6.472;2023-04-16T03:32:50;9.90;99.90
52016;DHT22;38032;53.326;6.472;2023-04-16T03:35:16;9.90;99.90
52016;DHT22;38032;53.326;6.472;2023-04-16T03:37:42;9.80;99.90
52016;DHT22;38032;53.326;6.472;2023-04-16T03:40:08;9.80;99.90
52016;DHT22;38032;53.326;6.472;2023-04-16T03:42:34;9.80;99.90
52016;DHT22;38032;53.326;6.472;2023-04-16T03:45:00;9.70;99.90
52016;DHT22;38032;53.326;6.472;2023-04-16T03:47:26;9.70;99.90
52016;DHT22;38032;53.326;6.472;2023-04-16T03:49:52;9.70;99.90
52016;DHT22;38032;53.326;6.472;2023-04-16T03:52:18;9.70;99.90
52016;DHT22;38032;53.326;6.472;2023-04-16T03:54:44;9.70;99.90
52016;DHT22;38032;53.326;6.472;2023-04-16T03:57:09;9.60;99.90
52016;DHT22;38032;53.326;6.472;2023-04-16T03:59:35;9.60;99.90
52016;DHT22;38032;53.326;6.472;2023-04-16T04:02:01;9.60;99.90
52016;DHT22;38032;53.326;6.472;2023-04-16T04:04:27;9.60;99.90
52016;DHT22;38032;53.326;6.472;2023-04-16T04:06:53;9.60;99.90
52016;DHT22;38032;53.326;6.472;2023-04-16T04:09:18;9.50;99.90
52016;DHT22;38032;53.326;6.472;2023-04-16T04:11:44;9.60;99.90
52016;DHT22;38032;53.326;6.472;2023-04-16T04:14:10;9.60;99.90
52016;DHT22;38032;53.326;6.472;2023-04-16T04:16:36;9.60;99.90
52016;DHT22;38032;53.326;6.472;2023-04-16T04:19:02;9.50;99.90
52016;DHT22;38032;53.326;6.472;2023-04-16T04:21:28;9.50;99.90
52016;DHT22;38032;53.326;6.472;2023-04-16T04:23:54;9.50;99.90
52016;DHT22;38032;53.326;6.472;2023-04-16T04:26:20;9.50;99.90
52016;DHT22;38032;53.326;6.472;2023-04-16T04:28:46;9.50;99.90
52016;DHT22;38032;53.326;6.472;2023-04-16T04:31:12;9.50;99.90
52016;DHT22;38032;53.326;6.472;2023-04-16T04:33:38;9.50;99.90
52016;DHT22;38032;53.326;6.472;2023-04-16T04:36:05;9.50;99.90
52016;DHT22;38032;53.326;6.472;2023-04-16T04:38:31;9.50;99.90
52016;DHT22;38032;53.326;6.472;2023-04-16T04:40:57;9.50;99.90
52016;DHT22;38032;53.326;6.472;2023-04-16T04:43:23;9.50;99.90
52016;DHT22;38032;53.326;6.472;2023-04-16T04:45:49;9.40;99.90
52016;DHT22;38032;53.326;6.472;2023-04-16T04:48:15;9.40;99.90
52016;DHT22;38032;53.326;6.472;2023-04-16T04:50:43;9.40;99.90
52016;DHT22;38032;53.326;6.472;2023-04-16T04:53:09;9.40;99.90
52016;DHT22;38032;53.326;6.472;2023-04-16T04:55:36;9.40;99.90
52016;DHT22;38032;53.326;6.472;2023-04-16T04:58:04;9.40;99.90
52016;DHT22;38032;53.326;6.472;2023-04-16T05:00:31;9.40;99.90
52016;DHT22;38032;53.326;6.472;2023-04-16T05:03:00;9.40;99.90
52016;DHT22;38032;53.326;6.472;2023-04-16T05:05:26;9.40;99.90
52016;DHT22;38032;53.326;6.472;2023-04-16T05:07:52;9.50;99.90
52016;DHT22;38032;53.326;6.472;2023-04-16T05:10:18;9.40;99.90
52016;DHT22;38032;53.326;6.472;2023-04-16T05:12:46;9.50;99.90
52016;DHT22;38032;53.326;6.472;2023-04-16T05:15:14;9.50;99.90
52016;DHT22;38032;53.326;6.472;2023-04-16T05:17:40;9.50;99.90
52016;DHT22;38032;53.326;6.472;2023-04-16T05:20:07;9.60;99.90
52016;DHT22;38032;53.326;6.472;2023-04-16T05:22:33;9.60;99.90
52016;DHT22;38032;53.326;6.472;2023-04-16T05:24:59;9.60;99.90
52016;DHT22;38032;53.326;6.472;2023-04-16T05:27:25;9.70;99.90
52016;DHT22;38032;53.326;6.472;2023-04-16T05:29:51;9.70;99.90
52016;DHT22;38032;53.326;6.472;2023-04-16T05:32:17;9.80;99.90
52016;DHT22;38032;53.326;6.472;2023-04-16T05:34:42;9.80;99.90
52016;DHT22;38032;53.326;6.472;2023-04-16T05:37:08;9.90;99.90
52016;DHT22;38032;53.326;6.472;2023-04-16T05:39:34;9.90;99.90
52016;DHT22;38032;53.326;6.472;2023-04-16T05:42:00;10.00;99.90
52016;DHT22;38032;53.326;6.472;2023-04-16T05:44:26;10.00;99.90
52016;DHT22;38032;53.326;6.472;2023-04-16T05:46:52;10.10;99.90
52016;DHT22;38032;53.326;6.472;2023-04-16T05:49:17;10.10;99.90
52016;DHT22;38032;53.326;6.472;2023-04-16T05:51:44;10.20;99.90
52016;DHT22;38032;53.326;6.472;2023-04-16T05:54:10;10.30;99.90
52016;DHT22;38032;53.326;6.472;2023-04-16T05:56:36;10.30;99.90
52016;DHT22;38032;53.326;6.472;2023-04-16T05:59:02;10.40;99.90
52016;DHT22;38032;53.326;6.472;2023-04-16T06:01:28;10.50;99.90
52016;DHT22;38032;53.326;6.472;2023-04-16T06:03:54;10.50;99.90
52016;DHT22;38032;53.326;6.472;2023-04-16T06:06:20;10.60;99.90
52016;DHT22;38032;53.326;6.472;2023-04-16T06:08:45;10.70;99.90
52016;DHT22;38032;53.326;6.472;2023-04-16T06:11:11;10.80;99.90
52016;DHT22;38032;53.326;6.472;2023-04-16T06:13:38;10.90;99.90
52016;DHT22;38032;53.326;6.472;2023-04-16T06:16:04;11.10;99.90
52016;DHT22;38032;53.326;6.472;2023-04-16T06:18:30;11.10;99.90
52016;DHT22;38032;53.326;6.472;2023-04-16T06:20:55;11.30;99.90
52016;DHT22;38032;53.326;6.472;2023-04-16T06:23:23;11.30;99.90
52016;DHT22;38032;53.326;6.472;2023-04-16T06:25:49;11.30;99.90
52016;DHT22;38032;53.326;6.472;2023-04-16T06:28:15;11.30;99.90
52016;DHT22;38032;53.326;6.472;2023-04-16T06:30:41;11.20;99.90
52016;DHT22;38032;53.326;6.472;2023-04-16T06:33:06;11.20;99.90
52016;DHT22;38032;53.326;6.472;2023-04-16T06:35:32;11.10;99.90
52016;DHT22;38032;53.326;6.472;2023-04-16T06:37:58;11.10;99.90
52016;DHT22;38032;53.326;6.472;2023-04-16T06:40:24;11.00;99.90
52016;DHT22;38032;53.326;6.472;2023-04-16T06:42:50;11.00;99.90
52016;DHT22;38032;53.326;6.472;2023-04-16T06:45:16;11.00;99.90
52016;DHT22;38032;53.326;6.472;2023-04-16T06:47:42;11.00;99.90
52016;DHT22;38032;53.326;6.472;2023-04-16T06:50:08;11.00;99.90
52016;DHT22;38032;53.326;6.472;2023-04-16T06:52:34;11.00;99.90
52016;DHT22;38032;53.326;6.472;2023-04-16T06:55:01;11.10;99.90
52016;DHT22;38032;53.326;6.472;2023-04-16T06:57:27;11.10;99.90
52016;DHT22;38032;53.326;6.472;2023-04-16T06:59:53;11.10;99.90
52016;DHT22;38032;53.326;6.472;2023-04-16T07:02:18;11.20;99.90
52016;DHT22;38032;53.326;6.472;2023-04-16T07:04:44;11.30;99.90
52016;DHT22;38032;53.326;6.472;2023-04-16T07:07:10;11.30;99.90
52016;DHT22;38032;53.326;6.472;2023-04-16T07:09:36;11.40;99.90
52016;DHT22;38032;53.326;6.472;2023-04-16T07:12:02;11.40;99.90
52016;DHT22;38032;53.326;6.472;2023-04-16T07:14:28;11.40;99.90
52016;DHT22;38032;53.326;6.472;2023-04-16T07:16:54;11.50;99.90
52016;DHT22;38032;53.326;6.472;2023-04-16T07:19:20;11.40;99.90
52016;DHT22;38032;53.326;6.472;2023-04-16T07:21:46;11.50;99.90
52016;DHT22;38032;53.326;6.472;2023-04-16T07:24:12;11.60;99.90
52016;DHT22;38032;53.326;6.472;2023-04-16T07:26:38;11.70;99.90
52016;DHT22;38032;53.326;6.472;2023-04-16T07:29:04;11.80;99.90
52016;DHT22;38032;53.326;6.472;2023-04-16T07:31:30;11.80;99.90
52016;DHT22;38032;53.326;6.472;2023-04-16T07:33:56;11.80;99.90
52016;DHT22;38032;53.326;6.472;2023-04-16T07:36:22;11.80;99.90
52016;DHT22;38032;53.326;6.472;2023-04-16T07:38:48;11.80;99.90
52016;DHT22;38032;53.326;6.472;2023-04-16T07:41:14;11.70;99.90
52016;DHT22;38032;53.326;6.472;2023-04-16T07:43:40;11.70;99.90
52016;DHT22;38032;53.326;6.472;2023-04-16T07:48:47;11.80;99.90
52016;DHT22;38032;53.326;6.472;2023-04-16T07:51:13;11.80;99.90
52016;DHT22;38032;53.326;6.472;2023-04-16T07:53:39;11.90;99.90
52016;DHT22;38032;53.326;6.472;2023-04-16T07:56:05;11.90;99.90
52016;DHT22;38032;53.326;6.472;2023-04-16T07:58:31;12.00;99.90
52016;DHT22;38032;53.326;6.472;2023-04-16T08:00:57;12.20;99.90
52016;DHT22;38032;53.326;6.472;2023-04-16T08:03:23;12.10;99.90
52016;DHT22;38032;53.326;6.472;2023-04-16T08:05:49;12.20;99.90
52016;DHT22;38032;53.326;6.472;2023-04-16T08:08:15;12.20;99.90
52016;DHT22;38032;53.326;6.472;2023-04-16T08:10:41;12.30;99.90
52016;DHT22;38032;53.326;6.472;2023-04-16T08:13:07;12.50;99.90
52016;DHT22;38032;53.326;6.472;2023-04-16T08:15:33;12.50;99.90
52016;DHT22;38032;53.326;6.472;2023-04-16T08:17:59;12.70;99.90
52016;DHT22;38032;53.326;6.472;2023-04-16T08:20:25;12.80;99.90
52016;DHT22;38032;53.326;6.472;2023-04-16T08:22:52;12.90;99.90
52016;DHT22;38032;53.326;6.472;2023-04-16T08:25:19;13.00;99.90
52016;DHT22;38032;53.326;6.472;2023-04-16T08:27:45;13.10;99.90
52016;DHT22;38032;53.326;6.472;2023-04-16T08:30:11;13.20;99.90
52016;DHT22;38032;53.326;6.472;2023-04-16T08:32:37;13.20;99.90
52016;DHT22;38032;53.326;6.472;2023-04-16T08:35:03;13.30;99.90
52016;DHT22;38032;53.326;6.472;2023-04-16T08:37:29;13.30;99.90
52016;DHT22;38032;53.326;6.472;2023-04-16T08:39:55;13.40;99.90
52016;DHT22;38032;53.326;6.472;2023-04-16T08:42:28;13.50;99.90
52016;DHT22;38032;53.326;6.472;2023-04-16T08:45:12;13.60;99.90
52016;DHT22;38032;53.326;6.472;2023-04-16T08:47:39;13.60;99.90
52016;DHT22;38032;53.326;6.472;2023-04-16T08:50:08;13.70;99.90
52016;DHT22;38032;53.326;6.472;2023-04-16T08:52:37;13.80;99.90
52016;DHT22;38032;53.326;6.472;2023-04-16T08:55:12;13.90;99.90
52016;DHT22;38032;53.326;6.472;2023-04-16T08:57:49;13.90;99.90
52016;DHT22;38032;53.326;6.472;2023-04-16T09:00:16;14.00;99.90
52016;DHT22;38032;53.326;6.472;2023-04-16T09:02:42;14.00;99.90
52016;DHT22;38032;53.326;6.472;2023-04-16T09:05:09;14.10;99.90
52016;DHT22;38032;53.326;6.472;2023-04-16T09:07:35;14.20;99.90
52016;DHT22;38032;53.326;6.472;2023-04-16T09:10:02;14.20;99.90
52016;DHT22;38032;53.326;6.472;2023-04-16T09:12:29;14.30;99.90
52016;DHT22;38032;53.326;6.472;2023-04-16T09:14:56;14.30;99.90
52016;DHT22;38032;53.326;6.472;2023-04-16T09:17:25;14.30;99.90
52016;DHT22;38032;53.326;6.472;2023-04-16T09:19:52;14.40;99.90
52016;DHT22;38032;53.326;6.472;2023-04-16T09:22:18;14.50;99.90
52016;DHT22;38032;53.326;6.472;2023-04-16T09:24:45;14.50;99.90
52016;DHT22;38032;53.326;6.472;2023-04-16T09:27:11;14.60;99.90
52016;DHT22;38032;53.326;6.472;2023-04-16T09:29:39;14.60;99.90
52016;DHT22;38032;53.326;6.472;2023-04-16T09:32:07;14.70;99.90
52016;DHT22;38032;53.326;6.472;2023-04-16T09:34:34;14.70;99.90
52016;DHT22;38032;53.326;6.472;2023-04-16T09:37:19;14.70;99.90
52016;DHT22;38032;53.326;6.472;2023-04-16T09:39:52;14.70;99.90
52016;DHT22;38032;53.326;6.472;2023-04-16T09:42:20;14.80;99.90
52016;DHT22;38032;53.326;6.472;2023-04-16T09:44:48;14.70;99.90
52016;DHT22;38032;53.326;6.472;2023-04-16T09:47:14;14.80;99.90
52016;DHT22;38032;53.326;6.472;2023-04-16T09:49:41;14.70;99.90
52016;DHT22;38032;53.326;6.472;2023-04-16T09:52:12;14.70;99.90
52016;DHT22;38032;53.326;6.472;2023-04-16T09:54:45;14.70;99.90
52016;DHT22;38032;53.326;6.472;2023-04-16T09:57:11;14.70;99.90
52016;DHT22;38032;53.326;6.472;2023-04-16T09:59:37;14.70;99.90
52016;DHT22;38032;53.326;6.472;2023-04-16T10:02:07;14.70;99.90
52016;DHT22;38032;53.326;6.472;2023-04-16T10:04:50;14.70;99.90
52016;DHT22;38032;53.326;6.472;2023-04-16T10:07:17;14.70;99.90
52016;DHT22;38032;53.326;6.472;2023-04-16T10:09:43;14.70;99.90
52016;DHT22;38032;53.326;6.472;2023-04-16T10:12:09;14.70;99.90
52016;DHT22;38032;53.326;6.472;2023-04-16T10:14:37;14.70;99.90
52016;DHT22;38032;53.326;6.472;2023-04-16T10:17:03;14.80;99.90
52016;DHT22;38032;53.326;6.472;2023-04-16T10:19:31;14.80;99.90
52016;DHT22;38032;53.326;6.472;2023-04-16T10:21:58;14.80;99.90
52016;DHT22;38032;53.326;6.472;2023-04-16T10:24:24;14.70;99.90
52016;DHT22;38032;53.326;6.472;2023-04-16T10:26:52;14.70;99.90
52016;DHT22;38032;53.326;6.472;2023-04-16T10:29:20;14.60;99.90
52016;DHT22;38032;53.326;6.472;2023-04-16T10:31:47;14.60;99.90
52016;DHT22;38032;53.326;6.472;2023-04-16T10:34:14;14.60;99.90
52016;DHT22;38032;53.326;6.472;2023-04-16T10:36:41;14.70;99.90
52016;DHT22;38032;53.326;6.472;2023-04-16T10:39:10;14.70;99.90
52016;DHT22;38032;53.326;6.472;2023-04-16T10:41:37;14.60;99.90
52016;DHT22;38032;53.326;6.472;2023-04-16T10:44:05;14.70;99.90
52016;DHT22;38032;53.326;6.472;2023-04-16T10:46:36;14.70;99.90
52016;DHT22;38032;53.326;6.472;2023-04-16T10:49:13;14.80;99.90
52016;DHT22;38032;53.326;6.472;2023-04-16T10:51:40;14.80;99.90
52016;DHT22;38032;53.326;6.472;2023-04-16T10:56:34;15.20;99.90
52016;DHT22;38032;53.326;6.472;2023-04-16T10:59:03;14.90;99.90
52016;DHT22;38032;53.326;6.472;2023-04-16T11:01:34;15.10;99.90
52016;DHT22;38032;53.326;6.472;2023-04-16T11:07:15;15.40;99.90
52016;DHT22;38032;53.326;6.472;2023-04-16T11:09:53;15.70;99.90
52016;DHT22;38032;53.326;6.472;2023-04-16T11:12:20;15.90;99.90
52016;DHT22;38032;53.326;6.472;2023-04-16T11:14:48;16.20;99.90
52016;DHT22;38032;53.326;6.472;2023-04-16T11:17:15;16.40;99.90
52016;DHT22;38032;53.326;6.472;2023-04-16T11:19:41;16.70;99.90
52016;DHT22;38032;53.326;6.472;2023-04-16T11:22:11;16.80;99.90
52016;DHT22;38032;53.326;6.472;2023-04-16T11:24:37;16.80;99.90
52016;DHT22;38032;53.326;6.472;2023-04-16T11:27:06;16.90;99.90
52016;DHT22;38032;53.326;6.472;2023-04-16T11:29:32;17.00;99.90
52016;DHT22;38032;53.326;6.472;2023-04-16T11:31:58;17.20;99.90
52016;DHT22;38032;53.326;6.472;2023-04-16T11:34:24;17.20;99.90
52016;DHT22;38032;53.326;6.472;2023-04-16T11:36:51;17.30;99.90
52016;DHT22;38032;53.326;6.472;2023-04-16T11:39:17;17.30;99.90
52016;DHT22;38032;53.326;6.472;2023-04-16T11:41:44;17.20;99.90
52016;DHT22;38032;53.326;6.472;2023-04-16T11:46:47;17.00;99.90
52016;DHT22;38032;53.326;6.472;2023-04-16T11:49:14;16.90;99.90
52016;DHT22;38032;53.326;6.472;2023-04-16T11:51:44;16.80;99.90
52016;DHT22;38032;53.326;6.472;2023-04-16T11:54:19;16.80;99.90
52016;DHT22;38032;53.326;6.472;2023-04-16T11:56:46;16.70;99.90
52016;DHT22;38032;53.326;6.472;2023-04-16T11:59:15;16.70;99.90
52016;DHT22;38032;53.326;6.472;2023-04-16T12:01:48;16.70;99.90
52016;DHT22;38032;53.326;6.472;2023-04-16T12:04:16;16.70;99.90
52016;DHT22;38032;53.326;6.472;2023-04-16T12:07:03;16.70;99.90
52016;DHT22;38032;53.326;6.472;2023-04-16T12:09:29;16.80;99.90
52016;DHT22;38032;53.326;6.472;2023-04-16T12:11:55;16.80;99.90
52016;DHT22;38032;53.326;6.472;2023-04-16T12:14:21;16.90;99.90
52016;DHT22;38032;53.326;6.472;2023-04-16T12:16:47;16.90;99.90
52016;DHT22;38032;53.326;6.472;2023-04-16T12:19:14;17.00;99.90
52016;DHT22;38032;53.326;6.472;2023-04-16T12:21:41;17.10;99.90
52016;DHT22;38032;53.326;6.472;2023-04-16T12:24:10;17.10;99.90
52016;DHT22;38032;53.326;6.472;2023-04-16T12:26:40;17.10;99.90
52016;DHT22;38032;53.326;6.472;2023-04-16T12:29:19;17.20;99.90
52016;DHT22;38032;53.326;6.472;2023-04-16T12:31:46;17.30;99.90
52016;DHT22;38032;53.326;6.472;2023-04-16T12:34:12;17.30;99.90
52016;DHT22;38032;53.326;6.472;2023-04-16T12:36:40;17.40;99.90
52016;DHT22;38032;53.326;6.472;2023-04-16T12:39:07;17.50;99.90
52016;DHT22;38032;53.326;6.472;2023-04-16T12:41:36;17.50;99.90
52016;DHT22;38032;53.326;6.472;2023-04-16T12:44:08;17.60;99.90
52016;DHT22;38032;53.326;6.472;2023-04-16T12:46:37;17.60;99.90
52016;DHT22;38032;53.326;6.472;2023-04-16T12:49:04;17.60;99.90
52016;DHT22;38032;53.326;6.472;2023-04-16T12:51:31;17.60;99.90
52016;DHT22;38032;53.326;6.472;2023-04-16T12:53:57;17.60;99.90
52016;DHT22;38032;53.326;6.472;2023-04-16T12:56:24;17.70;99.90
52016;DHT22;38032;53.326;6.472;2023-04-16T12:58:50;17.70;99.90
52016;DHT22;38032;53.326;6.472;2023-04-16T13:01:18;17.80;99.90
52016;DHT22;38032;53.326;6.472;2023-04-16T13:03:44;17.90;99.90
52016;DHT22;38032;53.326;6.472;2023-04-16T13:06:11;18.10;99.90
52016;DHT22;38032;53.326;6.472;2023-04-16T13:08:37;18.20;99.90
52016;DHT22;38032;53.326;6.472;2023-04-16T13:11:03;18.40;99.90
52016;DHT22;38032;53.326;6.472;2023-04-16T13:13:29;18.30;99.90
52016;DHT22;38032;53.326;6.472;2023-04-16T13:15:55;18.20;99.90
52016;DHT22;38032;53.326;6.472;2023-04-16T13:18:21;18.10;99.90
52016;DHT22;38032;53.326;6.472;2023-04-16T13:20:47;17.90;99.90
52016;DHT22;38032;53.326;6.472;2023-04-16T13:23:13;17.80;99.90
52016;DHT22;38032;53.326;6.472;2023-04-16T13:25:40;17.70;99.90
52016;DHT22;38032;53.326;6.472;2023-04-16T13:28:06;17.70;99.90
52016;DHT22;38032;53.326;6.472;2023-04-16T13:30:32;17.70;99.90
52016;DHT22;38032;53.326;6.472;2023-04-16T13:32:58;17.70;99.90
52016;DHT22;38032;53.326;6.472;2023-04-16T13:35:25;17.70;99.90
52016;DHT22;38032;53.326;6.472;2023-04-16T13:37:51;17.60;99.90
52016;DHT22;38032;53.326;6.472;2023-04-16T13:40:17;17.70;99.90
52016;DHT22;38032;53.326;6.472;2023-04-16T13:42:43;17.70;99.90
52016;DHT22;38032;53.326;6.472;2023-04-16T13:45:09;17.70;99.90
52016;DHT22;38032;53.326;6.472;2023-04-16T13:47:37;17.70;99.90
52016;DHT22;38032;53.326;6.472;2023-04-16T13:50:05;17.70;99.90
52016;DHT22;38032;53.326;6.472;2023-04-16T13:52:31;17.70;99.90
52016;DHT22;38032;53.326;6.472;2023-04-16T13:54:56;17.80;99.90
52016;DHT22;38032;53.326;6.472;2023-04-16T13:57:22;17.80;99.90
52016;DHT22;38032;53.326;6.472;2023-04-16T13:59:48;17.80;99.90
52016;DHT22;38032;53.326;6.472;2023-04-16T14:02:14;17.80;99.90
52016;DHT22;38032;53.326;6.472;2023-04-16T14:04:40;17.80;99.90
52016;DHT22;38032;53.326;6.472;2023-04-16T14:07:06;17.70;99.90
52016;DHT22;38032;53.326;6.472;2023-04-16T14:09:32;17.70;99.90
52016;DHT22;38032;53.326;6.472;2023-04-16T14:11:58;17.60;99.90
52016;DHT22;38032;53.326;6.472;2023-04-16T14:14:24;17.50;99.90
52016;DHT22;38032;53.326;6.472;2023-04-16T14:16:52;17.50;99.90
52016;DHT22;38032;53.326;6.472;2023-04-16T14:19:18;17.40;99.90
52016;DHT22;38032;53.326;6.472;2023-04-16T14:21:44;17.40;99.90
52016;DHT22;38032;53.326;6.472;2023-04-16T14:24:10;17.40;99.90
52016;DHT22;38032;53.326;6.472;2023-04-16T14:26:36;17.30;99.90
52016;DHT22;38032;53.326;6.472;2023-04-16T14:29:02;17.20;99.90
52016;DHT22;38032;53.326;6.472;2023-04-16T14:31:28;17.30;99.90
52016;DHT22;38032;53.326;6.472;2023-04-16T14:33:53;17.30;99.90
52016;DHT22;38032;53.326;6.472;2023-04-16T14:36:20;17.30;99.90
52016;DHT22;38032;53.326;6.472;2023-04-16T14:38:46;17.40;99.90
52016;DHT22;38032;53.326;6.472;2023-04-16T14:41:12;17.40;99.90
52016;DHT22;38032;53.326;6.472;2023-04-16T14:43:38;17.30;99.90
52016;DHT22;38032;53.326;6.472;2023-04-16T14:46:06;17.30;99.90
52016;DHT22;38032;53.326;6.472;2023-04-16T14:48:31;17.30;99.90
52016;DHT22;38032;53.326;6.472;2023-04-16T14:50:58;17.20;99.90
52016;DHT22;38032;53.326;6.472;2023-04-16T14:53:23;17.10;99.90
52016;DHT22;38032;53.326;6.472;2023-04-16T14:55:51;17.00;99.90
52016;DHT22;38032;53.326;6.472;2023-04-16T14:58:17;16.80;99.90
52016;DHT22;38032;53.326;6.472;2023-04-16T15:00:43;16.70;99.90
52016;DHT22;38032;53.326;6.472;2023-04-16T15:03:09;16.60;99.90
52016;DHT22;38032;53.326;6.472;2023-04-16T15:05:35;16.40;99.90
52016;DHT22;38032;53.326;6.472;2023-04-16T15:08:01;16.20;99.90
52016;DHT22;38032;53.326;6.472;2023-04-16T15:10:28;16.10;99.90
52016;DHT22;38032;53.326;6.472;2023-04-16T15:12:54;16.00;99.90
52016;DHT22;38032;53.326;6.472;2023-04-16T15:15:20;15.90;99.90
52016;DHT22;38032;53.326;6.472;2023-04-16T15:17:46;15.70;99.90
52016;DHT22;38032;53.326;6.472;2023-04-16T15:20:12;15.60;99.90
52016;DHT22;38032;53.326;6.472;2023-04-16T15:22:38;15.50;99.90
52016;DHT22;38032;53.326;6.472;2023-04-16T15:25:05;15.40;99.90
52016;DHT22;38032;53.326;6.472;2023-04-16T15:27:31;15.30;99.90
52016;DHT22;38032;53.326;6.472;2023-04-16T15:29:57;15.30;99.90
52016;DHT22;38032;53.326;6.472;2023-04-16T15:32:23;15.20;99.90
52016;DHT22;38032;53.326;6.472;2023-04-16T15:34:49;15.00;99.90
52016;DHT22;38032;53.326;6.472;2023-04-16T15:37:15;15.00;99.90
52016;DHT22;38032;53.326;6.472;2023-04-16T15:39:41;14.90;99.90